首页
METAR-TAF:

METAR-TAF

机场 :

奥黑尔国际机场

芝加哥, 伊利诺伊州, 美国

纬度: 41-58-47N, 经度: 087-54-16W, 海拔: 203米

当前天气观测

该预报发布于1小时和11分钟前的00:51 UTC
风速9节,风向南转西南
温度 8°C
湿度 39%
气压 1019 hPa
能見度: 16.1公里
天空无云

METAR: KORD 220051Z 21009KT 10SM CLR 08/M05 A3009 RMK AO2 SLP195 T00831050

时间: 21:02 (02:02 UTC)

预报

该预报发布于2小时和42分钟前的23:20 UTC
预报有效从22日的 00点(UTC)到 23日的 06点(UTC)
风速11节,风向南转西南
能見度: 10公里
天空无云
从 22日的 1000点(UTC)
风速7节,风向西转西南
能見度: 10公里
散云层高于25000英尺
从 22日的 1800点(UTC)
风速12节,风向西
能見度: 10公里
少量云层高于25000英尺

TAF: KORD 212320Z 2200/2306 21011KT P6SM SKC FM221000 24007KT P6SM SCT250 FM221800 27012KT P6SM FEW250

超过4000个机场的气象观测和天气预报(METAR&TAF报告)。

可查询的气象台以黄色和红色小点在地图上表示。

将鼠标移到小点上方,可查看气象台名称。

然后点击查看天气观测和预报。

如需切换地图:点击带黑十字的绿色按钮放大地图;点击带横线的绿色按钮缩小地图;或者点击绿色箭头查看邻近地区的地图。


METAR-TAF: